createdAt,value
2023-09-15T00:01:43.483Z,17.84
2023-09-15T00:04:13.791Z,17.85
2023-09-15T00:06:44.134Z,17.87
2023-09-15T00:09:20.074Z,17.89
2023-09-15T00:11:50.890Z,17.84
2023-09-15T00:14:20.625Z,17.79
2023-09-15T00:16:49.293Z,17.73
2023-09-15T00:19:18.337Z,17.72
2023-09-15T00:21:50.886Z,17.72
2023-09-15T00:24:19.450Z,17.76
2023-09-15T00:26:49.695Z,17.77
2023-09-15T00:29:18.355Z,17.75
2023-09-15T00:31:47.680Z,17.70
2023-09-15T00:34:16.347Z,17.67
2023-09-15T00:36:47.132Z,17.67
2023-09-15T00:39:16.269Z,17.67
2023-09-15T00:41:44.971Z,17.61
2023-09-15T00:44:13.535Z,17.53
2023-09-15T00:46:42.855Z,17.45
2023-09-15T00:49:12.412Z,17.43
2023-09-15T00:51:42.081Z,17.47
2023-09-15T00:54:11.120Z,17.53
2023-09-15T00:56:39.879Z,17.57
2023-09-15T00:59:11.875Z,17.56
2023-09-15T01:01:45.134Z,17.53
2023-09-15T01:04:13.944Z,17.50
2023-09-15T01:06:43.794Z,17.49
2023-09-15T01:09:12.693Z,17.49
2023-09-15T01:11:41.273Z,17.51
2023-09-15T01:14:10.058Z,17.48
2023-09-15T01:16:44.467Z,17.45
2023-09-15T01:19:40.897Z,17.42
2023-09-15T01:22:51.261Z,17.37
2023-09-15T01:25:28.966Z,17.32
2023-09-15T01:28:04.717Z,17.31
2023-09-15T01:30:34.008Z,17.25
2023-09-15T01:33:04.768Z,17.22
2023-09-15T01:35:33.783Z,17.20
2023-09-15T01:38:02.477Z,17.18
2023-09-15T01:40:32.843Z,17.14
2023-09-15T01:43:01.367Z,17.13
2023-09-15T01:45:30.043Z,17.11
2023-09-15T01:47:59.651Z,17.11
2023-09-15T01:50:30.194Z,17.09
2023-09-15T01:52:58.792Z,17.09
2023-09-15T01:55:28.686Z,17.08
2023-09-15T01:57:57.236Z,17.08
2023-09-15T02:00:33.229Z,17.11
2023-09-15T02:03:02.006Z,17.16
2023-09-15T02:05:30.867Z,17.20
2023-09-15T02:07:59.488Z,17.22
2023-09-15T02:10:27.965Z,17.23
2023-09-15T02:12:56.692Z,17.22
2023-09-15T02:15:26.684Z,17.21
2023-09-15T02:17:59.723Z,17.23
2023-09-15T02:20:29.054Z,17.26
2023-09-15T02:22:58.488Z,17.32
2023-09-15T02:25:27.090Z,17.34
2023-09-15T02:27:55.567Z,17.31
2023-09-15T02:30:24.106Z,17.23
2023-09-15T02:32:52.602Z,17.27
2023-09-15T02:35:21.935Z,17.34
2023-09-15T02:37:50.462Z,17.41
2023-09-15T02:40:19.423Z,17.44
2023-09-15T02:42:49.349Z,17.46
2023-09-15T02:45:18.625Z,17.49
2023-09-15T02:47:47.718Z,17.49
2023-09-15T02:50:16.293Z,17.47
2023-09-15T02:52:44.837Z,17.49
2023-09-15T02:55:13.443Z,17.53
2023-09-15T02:57:42.504Z,17.52
2023-09-15T03:00:15.203Z,17.50
2023-09-15T03:02:45.746Z,17.41
2023-09-15T03:05:15.473Z,17.40
2023-09-15T03:07:44.200Z,17.42
2023-09-15T03:10:14.396Z,17.43
2023-09-15T03:12:43.005Z,17.47
2023-09-15T03:15:13.230Z,17.48
2023-09-15T03:17:41.973Z,17.49
2023-09-15T03:20:20.588Z,17.50
2023-09-15T03:22:49.372Z,17.54
2023-09-15T03:25:18.769Z,17.57
2023-09-15T03:27:47.492Z,17.58
2023-09-15T03:30:16.106Z,17.58
2023-09-15T03:32:45.421Z,17.58
2023-09-15T03:35:13.975Z,17.54
2023-09-15T03:37:44.148Z,17.49
2023-09-15T03:40:13.332Z,17.46
2023-09-15T03:42:42.085Z,17.44
2023-09-15T03:45:11.034Z,17.44
2023-09-15T03:47:39.523Z,17.39
2023-09-15T03:50:11.017Z,17.37
2023-09-15T03:52:39.582Z,17.34
2023-09-15T03:55:08.861Z,17.29
2023-09-15T03:57:38.697Z,17.26
2023-09-15T04:00:12.913Z,17.25
2023-09-15T20:08:24.190Z,16.71
2023-09-15T20:12:13.358Z,16.73
2023-09-15T20:16:02.945Z,16.74
2023-09-15T20:19:17.856Z,16.75
2023-09-15T20:21:46.309Z,16.75
2023-09-15T20:24:15.230Z,16.75
2023-09-15T20:26:44.685Z,16.77
2023-09-15T20:29:13.230Z,16.79
2023-09-15T20:31:44.575Z,16.88
2023-09-15T20:34:14.407Z,16.88
2023-09-15T20:36:43.398Z,16.87
2023-09-15T20:39:11.840Z,16.89
2023-09-15T20:41:40.684Z,16.90
2023-09-15T20:44:09.210Z,16.91
2023-09-15T20:46:37.864Z,16.90
2023-09-15T20:49:06.733Z,16.92
2023-09-15T20:51:35.549Z,16.91
2023-09-15T20:54:04.314Z,16.92
2023-09-15T20:56:33.052Z,16.89
2023-09-15T20:59:01.937Z,16.89
2023-09-15T21:01:30.497Z,16.92
2023-09-15T21:04:00.631Z,16.92
2023-09-15T21:06:29.397Z,16.91
2023-09-15T21:08:59.364Z,16.91
2023-09-15T21:11:28.852Z,16.89
2023-09-15T21:13:57.697Z,16.86
2023-09-15T21:16:27.123Z,16.86
2023-09-15T21:18:56.424Z,16.84
2023-09-15T21:21:24.926Z,16.83
2023-09-15T21:23:53.340Z,16.83
2023-09-15T21:26:22.139Z,16.81
2023-09-15T21:28:51.103Z,16.80
2023-09-15T21:31:19.968Z,16.80
2023-09-15T21:33:48.909Z,16.79
2023-09-15T21:36:18.557Z,16.78
2023-09-15T21:38:48.198Z,16.75
2023-09-15T21:41:17.311Z,16.71
2023-09-15T21:43:46.053Z,16.69
2023-09-15T21:46:14.617Z,16.70
2023-09-15T21:48:43.292Z,16.68
2023-09-15T21:51:12.838Z,16.64
2023-09-15T21:53:42.035Z,16.60
2023-09-15T21:56:10.704Z,16.57
2023-09-15T21:58:39.280Z,16.54
2023-09-15T22:01:07.822Z,16.52
2023-09-15T22:03:36.405Z,16.48
2023-09-15T22:06:07.638Z,16.46
2023-09-15T22:08:37.614Z,16.43
2023-09-15T22:11:10.385Z,16.45
2023-09-15T22:13:39.427Z,16.44
2023-09-15T22:16:08.637Z,16.43
2023-09-15T22:18:37.279Z,16.43
2023-09-15T22:21:06.046Z,16.44
2023-09-15T22:23:35.991Z,16.47
2023-09-15T22:26:04.506Z,16.47
2023-09-15T22:28:33.331Z,16.47
2023-09-15T22:31:02.030Z,16.48
2023-09-15T22:33:32.358Z,16.50
2023-09-15T22:36:06.966Z,16.52
2023-09-15T22:38:37.612Z,16.53
2023-09-15T22:43:40.596Z,16.56
2023-09-15T22:46:16.056Z,16.60
2023-09-15T22:48:46.023Z,16.61
2023-09-15T22:51:15.301Z,16.60
2023-09-15T22:53:44.399Z,16.61
2023-09-15T22:56:13.592Z,16.63
2023-09-15T22:58:42.349Z,16.65
2023-09-15T23:01:11.114Z,16.65
2023-09-15T23:03:40.168Z,16.64
2023-09-15T23:06:09.728Z,16.65
2023-09-15T23:08:38.670Z,16.66
2023-09-15T23:11:07.347Z,16.65
2023-09-15T23:13:35.820Z,16.64
2023-09-15T23:16:08.473Z,16.63
2023-09-15T23:18:37.862Z,16.64
2023-09-15T23:21:06.947Z,16.61
2023-09-15T23:23:35.711Z,16.57
2023-09-15T23:26:05.091Z,16.58
2023-09-15T23:28:33.666Z,16.58
2023-09-15T23:31:03.477Z,16.57
2023-09-15T23:33:32.401Z,16.55
2023-09-15T23:36:06.579Z,16.54
2023-09-15T23:38:35.678Z,16.55
2023-09-15T23:41:06.213Z,16.57
2023-09-15T23:43:36.887Z,16.56
2023-09-15T23:46:05.573Z,16.54
2023-09-15T23:48:34.323Z,16.53
2023-09-15T23:51:02.836Z,16.54
2023-09-15T23:53:31.417Z,16.51
2023-09-15T23:56:00.066Z,16.49
2023-09-15T23:58:28.501Z,16.47
